createdAt,value
2023-05-03T00:00:08.199Z,5.57
2023-05-03T00:02:57.360Z,6.68
2023-05-03T00:05:28.113Z,5.97
2023-05-03T00:07:57.034Z,6.35
2023-05-03T00:10:25.039Z,5.10
2023-05-03T00:12:52.528Z,6.32
2023-05-03T00:15:19.659Z,6.45
2023-05-03T00:17:47.404Z,6.88
2023-05-03T00:20:15.285Z,6.05
2023-05-03T00:22:42.821Z,5.93
2023-05-03T00:25:10.344Z,6.93
2023-05-03T00:27:38.692Z,6.32
2023-05-03T00:30:06.805Z,7.15
2023-05-03T00:32:34.327Z,7.20
2023-05-03T00:35:01.704Z,6.63
2023-05-03T00:37:30.890Z,5.95
2023-05-03T00:39:58.024Z,6.93
2023-05-03T00:42:25.453Z,5.90
2023-05-03T00:44:53.978Z,6.07
2023-05-03T00:47:23.451Z,6.35
2023-05-03T00:49:51.345Z,6.07
2023-05-03T00:52:19.072Z,6.07
2023-05-03T00:54:46.494Z,6.15
2023-05-03T00:57:14.648Z,6.05
2023-05-03T00:59:42.385Z,6.47
2023-05-03T01:02:09.891Z,5.90
2023-05-03T01:04:37.943Z,6.47
2023-05-03T01:07:34.799Z,5.85
2023-05-03T01:10:17.791Z,8.63
2023-05-03T01:13:32.600Z,7.28
2023-05-03T01:16:20.125Z,7.45
2023-05-03T01:18:51.040Z,6.95
2023-05-03T01:21:21.266Z,6.88
2023-05-03T01:24:13.754Z,7.50
2023-05-03T01:26:41.042Z,6.38
2023-05-03T01:29:08.460Z,8.85
2023-05-03T01:31:50.628Z,8.40
2023-05-03T01:34:50.830Z,5.72
2023-05-03T01:37:18.889Z,9.15
2023-05-03T01:40:04.277Z,7.85
2023-05-03T01:42:36.736Z,6.90
2023-05-03T01:45:08.507Z,7.75
2023-05-03T01:47:35.847Z,7.15
2023-05-03T01:50:03.956Z,7.13
2023-05-03T01:52:31.349Z,7.07
2023-05-03T01:55:00.052Z,7.18
2023-05-03T01:57:27.338Z,7.78
2023-05-03T01:59:54.663Z,8.63
2023-05-03T02:02:22.409Z,8.07
2023-05-03T02:04:50.416Z,8.43
2023-05-03T02:07:18.922Z,8.25
2023-05-03T02:09:46.611Z,7.65
2023-05-03T02:12:13.757Z,7.30
2023-05-03T02:14:41.146Z,7.43
2023-05-03T02:17:10.475Z,7.78
2023-05-03T02:19:38.447Z,7.70
2023-05-03T02:22:07.229Z,8.10
2023-05-03T02:24:36.116Z,8.88
2023-05-03T02:27:04.772Z,9.55
2023-05-03T02:29:32.291Z,8.63
2023-05-03T02:32:01.784Z,7.97
2023-05-03T02:34:29.274Z,10.52
2023-05-03T02:36:56.469Z,7.80
2023-05-03T02:39:23.912Z,8.77
2023-05-03T02:41:52.012Z,8.55
2023-05-03T02:44:19.377Z,8.77
2023-05-03T02:46:46.674Z,9.43
2023-05-03T02:49:17.388Z,8.35
2023-05-03T02:51:44.990Z,9.82
2023-05-03T02:54:12.609Z,8.75
2023-05-03T02:56:40.692Z,9.38
2023-05-03T02:59:08.072Z,9.15
2023-05-03T03:01:35.316Z,7.85
2023-05-03T03:04:03.542Z,7.50
2023-05-03T03:06:31.458Z,9.25
2023-05-03T03:08:59.591Z,8.75
2023-05-03T03:11:26.892Z,9.75
2023-05-03T03:13:54.287Z,8.20
2023-05-03T03:16:22.049Z,8.40
2023-05-03T03:18:49.357Z,8.63
2023-05-03T03:21:16.651Z,8.25
2023-05-03T03:23:44.363Z,7.60
2023-05-03T03:26:12.588Z,8.60
2023-05-03T03:28:39.891Z,8.43
2023-05-03T03:31:10.821Z,8.45
2023-05-03T03:33:39.554Z,7.72
2023-05-03T03:36:12.335Z,7.78
2023-05-03T03:38:43.399Z,7.45
2023-05-03T03:41:12.012Z,7.78
2023-05-03T03:43:39.793Z,7.95
2023-05-03T03:46:12.031Z,7.75
2023-05-03T03:48:40.231Z,7.35
2023-05-03T03:51:07.473Z,7.30
2023-05-03T03:53:41.348Z,7.63
2023-05-03T03:56:09.139Z,7.22
2023-05-03T03:58:36.656Z,6.45
2023-05-03T04:01:06.981Z,7.70
2023-05-03T04:03:34.737Z,8.30
2023-05-03T04:06:02.294Z,7.55
2023-05-03T04:08:30.257Z,7.43
2023-05-03T04:10:57.437Z,7.22
2023-05-03T04:13:26.839Z,7.50
2023-05-03T04:15:56.876Z,7.50
2023-05-03T04:18:25.694Z,8.02
2023-05-03T04:20:55.158Z,7.57
2023-05-03T04:23:22.875Z,7.93
2023-05-03T04:25:50.102Z,8.52
2023-05-03T04:28:20.422Z,7.90
2023-05-03T04:30:49.604Z,7.80
2023-05-03T04:33:22.470Z,8.15
2023-05-03T04:35:52.803Z,8.15
2023-05-03T04:38:20.435Z,8.77
2023-05-03T04:40:47.734Z,8.30
2023-05-03T04:43:15.674Z,8.20
2023-05-03T04:45:46.051Z,8.05
2023-05-03T04:48:18.856Z,10.35
2023-05-03T04:50:47.006Z,9.23
2023-05-03T04:53:17.664Z,9.10
2023-05-03T04:55:51.000Z,7.60
2023-05-03T04:58:18.467Z,8.43
2023-05-03T05:00:46.473Z,8.55
2023-05-03T05:03:20.885Z,9.07
2023-05-03T05:05:49.306Z,8.95
2023-05-03T05:08:20.789Z,9.38
2023-05-03T05:10:52.110Z,9.68
2023-05-03T05:13:24.405Z,8.23
2023-05-03T05:15:51.984Z,9.93
2023-05-03T05:18:19.429Z,11.05
2023-05-03T05:20:48.498Z,12.40
2023-05-03T05:23:16.265Z,11.15
2023-05-03T05:25:46.452Z,11.00
2023-05-03T05:28:13.850Z,10.57
2023-05-03T05:30:41.513Z,10.07
2023-05-03T05:33:09.510Z,10.27
2023-05-03T05:35:36.886Z,11.95
2023-05-03T05:38:05.433Z,11.13
2023-05-03T05:40:34.071Z,9.82
2023-05-03T05:43:02.242Z,11.00
2023-05-03T05:45:31.543Z,9.85
2023-05-03T05:47:59.309Z,10.10
2023-05-03T05:50:26.874Z,9.68
2023-05-03T05:53:00.263Z,9.68
2023-05-03T05:55:30.933Z,10.50
2023-05-03T05:58:00.515Z,9.23
2023-05-03T06:00:36.205Z,9.45
2023-05-03T06:03:05.113Z,10.05
2023-05-03T06:05:32.441Z,10.30
2023-05-03T06:08:00.206Z,9.40
2023-05-03T06:10:27.303Z,10.02
2023-05-03T06:12:57.229Z,9.70
2023-05-03T06:15:26.318Z,9.15
2023-05-03T06:17:54.228Z,8.23
2023-05-03T06:20:24.092Z,7.88
2023-05-03T06:22:52.539Z,8.27
2023-05-03T06:25:19.651Z,10.75
2023-05-03T06:27:49.895Z,8.65
2023-05-03T06:30:19.409Z,9.60
2023-05-03T06:32:48.739Z,8.77
2023-05-03T06:35:18.336Z,8.52
2023-05-03T06:37:45.794Z,9.18
2023-05-03T06:40:13.158Z,9.10
2023-05-03T06:42:40.567Z,10.30
2023-05-03T06:45:34.064Z,9.02
2023-05-03T06:48:01.787Z,8.43
2023-05-03T06:50:28.971Z,9.15
2023-05-03T06:52:56.423Z,8.27
2023-05-03T06:55:23.915Z,9.10
2023-05-03T06:57:52.917Z,8.07
2023-05-03T07:00:23.052Z,9.13
2023-05-03T07:02:50.454Z,7.30
2023-05-03T07:05:17.798Z,13.00
2023-05-03T07:07:46.255Z,9.80
2023-05-03T07:10:13.456Z,13.20
2023-05-03T07:12:41.097Z,10.60
2023-05-03T07:15:09.341Z,10.40
2023-05-03T07:17:36.782Z,10.23
2023-05-03T07:20:04.558Z,10.90
2023-05-03T07:22:32.337Z,11.02
2023-05-03T07:24:59.612Z,12.45
2023-05-03T07:27:27.285Z,11.90
2023-05-03T07:29:54.754Z,13.82
2023-05-03T07:32:22.362Z,12.93
2023-05-03T07:34:49.612Z,12.40
2023-05-03T07:37:17.540Z,12.00
2023-05-03T07:39:45.530Z,13.18
2023-05-03T07:42:12.899Z,14.07
2023-05-03T07:44:40.350Z,13.23
2023-05-03T07:47:07.932Z,9.05
2023-05-03T07:49:37.803Z,9.13
2023-05-03T07:52:05.494Z,9.52
2023-05-03T07:54:32.558Z,8.90
2023-05-03T07:57:00.695Z,10.02
2023-05-03T07:59:28.079Z,9.88
2023-05-03T08:01:55.813Z,12.00
2023-05-03T08:04:24.329Z,9.18
2023-05-03T08:06:52.833Z,7.03
2023-05-03T08:09:20.640Z,7.85
2023-05-03T08:11:48.123Z,7.20
2023-05-03T08:14:15.623Z,7.03
2023-05-03T08:16:43.091Z,6.38
2023-05-03T08:19:10.607Z,8.00
2023-05-03T08:21:38.317Z,8.93
2023-05-03T08:24:06.394Z,13.00
2023-05-03T08:26:33.812Z,7.15
2023-05-03T08:29:03.500Z,7.70
2023-05-03T08:31:31.234Z,6.72
2023-05-03T08:33:58.817Z,8.55
2023-05-03T08:36:26.155Z,7.47
2023-05-03T08:38:53.492Z,6.35
2023-05-03T08:41:40.391Z,7.28
2023-05-03T08:44:11.931Z,9.07
2023-05-03T08:46:39.070Z,8.02
2023-05-03T08:49:07.744Z,8.82
2023-05-03T08:51:36.489Z,11.88
2023-05-03T08:54:03.906Z,11.93
2023-05-03T08:56:40.421Z,11.68
2023-05-03T08:59:09.157Z,9.70
2023-05-03T09:01:40.812Z,11.40
2023-05-03T09:04:11.570Z,9.07
2023-05-03T09:06:39.332Z,9.77
2023-05-03T09:09:08.416Z,9.18
2023-05-03T09:11:38.309Z,11.98
2023-05-03T09:14:17.271Z,12.65
2023-05-03T09:16:47.071Z,12.90
2023-05-03T09:19:16.326Z,9.23
2023-05-03T09:21:49.091Z,11.13
2023-05-03T09:24:18.466Z,11.48
2023-05-03T09:26:51.212Z,9.60
2023-05-03T09:29:34.350Z,11.90
2023-05-03T09:32:06.288Z,11.27
2023-05-03T09:37:02.860Z,15.68
2023-05-03T09:39:30.962Z,9.13
2023-05-03T09:41:58.433Z,10.70
2023-05-03T09:44:53.851Z,7.95
2023-05-03T09:47:25.442Z,7.82
2023-05-03T09:49:53.024Z,6.50
2023-05-03T09:52:22.471Z,10.65
2023-05-03T09:54:53.741Z,12.13
2023-05-03T09:57:21.814Z,10.80
2023-05-03T09:59:50.783Z,12.95
2023-05-03T10:02:18.214Z,10.02
2023-05-03T10:04:53.782Z,11.05
2023-05-03T10:07:25.630Z,7.05
2023-05-03T10:09:53.299Z,7.72
2023-05-03T10:12:21.599Z,10.52
2023-05-03T10:14:54.859Z,9.25
2023-05-03T10:17:46.297Z,10.35
2023-05-03T10:20:28.550Z,8.90
2023-05-03T10:23:12.324Z,7.57
2023-05-03T10:26:07.356Z,7.35
2023-05-03T10:28:35.529Z,7.68
2023-05-03T10:31:04.460Z,9.70
2023-05-03T10:33:35.561Z,7.18
2023-05-03T10:36:10.486Z,6.73
2023-05-03T10:38:38.117Z,7.22
2023-05-03T10:41:07.031Z,6.60
2023-05-03T10:43:34.231Z,6.57
2023-05-03T10:46:30.714Z,6.68
2023-05-03T10:49:22.946Z,7.30
2023-05-03T10:51:50.664Z,5.78
2023-05-03T10:54:19.441Z,8.02
2023-05-03T10:56:56.144Z,6.82
2023-05-03T10:59:24.941Z,6.25
2023-05-03T11:01:54.207Z,8.60
2023-05-03T11:04:37.287Z,7.18
2023-05-03T11:07:04.854Z,7.28
2023-05-03T11:09:34.207Z,7.55
2023-05-03T11:12:08.663Z,7.70
2023-05-03T11:14:35.958Z,7.68
2023-05-03T11:17:03.498Z,7.18
2023-05-03T11:19:31.157Z,9.60
2023-05-03T11:21:58.876Z,6.18
2023-05-03T11:24:27.522Z,7.43
2023-05-03T11:26:55.412Z,7.30
2023-05-03T11:29:26.238Z,6.75
2023-05-03T11:31:53.667Z,6.90
2023-05-03T11:34:20.883Z,9.00
2023-05-03T11:36:49.312Z,7.38
2023-05-03T11:39:18.128Z,5.85
2023-05-03T11:42:04.627Z,6.25
2023-05-03T11:44:32.179Z,7.00
2023-05-03T11:47:00.311Z,6.18
2023-05-03T11:49:27.964Z,5.75
2023-05-03T11:51:56.368Z,6.95
2023-05-03T11:54:26.929Z,4.82
2023-05-03T11:56:59.706Z,7.37
2023-05-03T11:59:40.750Z,6.65
2023-05-03T12:02:13.106Z,6.28
2023-05-03T12:07:14.735Z,6.68
2023-05-03T12:09:50.325Z,6.45
2023-05-03T12:12:28.034Z,5.78
2023-05-03T12:15:01.085Z,5.63
2023-05-03T12:17:42.437Z,7.10
2023-05-03T12:22:58.505Z,13.75
2023-05-03T12:25:33.047Z,11.13
2023-05-03T12:28:19.596Z,8.05
2023-05-03T12:30:48.060Z,12.98
2023-05-03T12:33:17.166Z,15.85
2023-05-03T12:35:47.668Z,13.85
2023-05-03T12:38:17.325Z,16.65
2023-05-03T12:40:47.212Z,17.08
2023-05-03T12:43:15.141Z,12.27
2023-05-03T12:45:46.890Z,16.08
2023-05-03T12:48:17.777Z,12.00
2023-05-03T12:50:45.729Z,16.55
2023-05-03T12:53:16.926Z,16.00
2023-05-03T12:55:47.468Z,15.85
2023-05-03T13:01:37.282Z,16.88
2023-05-03T13:03:43.413Z,8.43
2023-05-03T13:06:13.816Z,12.55
2023-05-03T13:08:49.362Z,12.02
2023-05-03T13:11:19.752Z,15.15
2023-05-03T13:13:47.643Z,14.10
2023-05-03T13:16:14.971Z,10.00
2023-05-03T13:18:42.862Z,12.18
2023-05-03T13:21:11.389Z,10.90
2023-05-03T13:23:38.833Z,13.90
2023-05-03T13:26:06.965Z,16.55
2023-05-03T13:28:34.534Z,10.43
2023-05-03T13:31:02.534Z,8.60
2023-05-03T13:33:30.084Z,14.68
2023-05-03T13:35:57.526Z,9.20
2023-05-03T13:38:24.929Z,12.65
2023-05-03T13:40:52.519Z,9.63
2023-05-03T13:43:19.974Z,22.95
2023-05-03T13:45:47.253Z,11.35
2023-05-03T13:48:18.076Z,15.25
2023-05-03T13:50:46.210Z,16.27
2023-05-03T13:53:13.575Z,16.33
2023-05-03T13:55:41.935Z,10.18
2023-05-03T13:58:09.395Z,10.43
2023-05-03T14:00:36.686Z,9.63
2023-05-03T14:03:04.332Z,9.45
2023-05-03T14:05:31.653Z,13.15
2023-05-03T14:07:59.500Z,10.95
2023-05-03T14:10:26.617Z,22.55
2023-05-03T14:12:54.058Z,19.10
2023-05-03T14:15:21.794Z,9.88
2023-05-03T14:17:49.481Z,11.27
2023-05-03T14:20:20.004Z,10.40
2023-05-03T14:22:47.468Z,9.48
2023-05-03T14:25:14.546Z,16.75
2023-05-03T14:27:42.031Z,10.82
2023-05-03T14:30:10.382Z,11.30
2023-05-03T14:32:37.871Z,7.95
2023-05-03T14:35:05.556Z,17.65
2023-05-03T14:37:33.532Z,9.57
2023-05-03T14:40:00.978Z,10.52
2023-05-03T14:42:32.076Z,8.40
2023-05-03T14:45:00.028Z,9.00
2023-05-03T14:47:27.858Z,7.53
2023-05-03T14:49:56.106Z,8.43
2023-05-03T14:52:23.660Z,8.77
2023-05-03T14:54:51.019Z,7.55
2023-05-03T14:57:18.817Z,7.93
2023-05-03T14:59:47.208Z,8.02
2023-05-03T15:02:14.878Z,18.50
2023-05-03T15:04:42.221Z,8.63
2023-05-03T15:07:12.441Z,11.13
2023-05-03T15:09:40.197Z,8.07
2023-05-03T15:12:07.991Z,8.75
2023-05-03T15:14:35.691Z,8.35
2023-05-03T15:17:03.224Z,8.07
2023-05-03T15:19:30.518Z,8.13
2023-05-03T15:21:59.045Z,7.85
2023-05-03T15:24:26.471Z,8.10
2023-05-03T15:26:53.827Z,8.00
2023-05-03T15:29:21.579Z,8.02
2023-05-03T15:31:49.131Z,7.57
2023-05-03T15:34:16.356Z,7.63
2023-05-03T15:36:43.692Z,9.02
2023-05-03T15:39:11.121Z,8.70
2023-05-03T15:41:39.343Z,7.57
2023-05-03T15:44:08.126Z,8.60
2023-05-03T15:46:36.090Z,6.85
2023-05-03T15:49:03.984Z,8.98
2023-05-03T15:51:31.581Z,8.35
2023-05-03T15:53:59.352Z,7.53
2023-05-03T15:56:27.787Z,8.18
2023-05-03T15:58:55.507Z,7.78
2023-05-03T16:01:23.465Z,9.68
2023-05-03T16:03:51.359Z,7.70
2023-05-03T16:06:19.248Z,7.18
2023-05-03T16:08:46.448Z,9.18
2023-05-03T16:11:13.964Z,7.90
2023-05-03T16:13:41.308Z,7.28
2023-05-03T16:16:08.705Z,7.47
2023-05-03T16:18:36.193Z,7.75
2023-05-03T16:21:03.690Z,6.78
2023-05-03T16:23:30.964Z,7.70
2023-05-03T16:25:58.463Z,7.18
2023-05-03T16:28:26.109Z,9.00
2023-05-03T16:30:53.501Z,9.82
2023-05-03T16:33:21.047Z,9.88
2023-05-03T16:35:49.870Z,8.32
2023-05-03T16:38:17.298Z,9.50
2023-05-03T16:40:46.106Z,8.70
2023-05-03T16:43:15.438Z,8.23
2023-05-03T16:45:42.862Z,7.80
2023-05-03T16:48:11.175Z,7.15
2023-05-03T16:50:43.050Z,7.18
2023-05-03T16:53:12.007Z,7.87
2023-05-03T16:55:39.399Z,9.38
2023-05-03T16:58:07.147Z,6.05
2023-05-03T17:00:34.816Z,6.72
2023-05-03T17:03:02.386Z,6.22
2023-05-03T17:05:33.051Z,7.60
2023-05-03T17:08:01.934Z,6.57
2023-05-03T17:10:31.325Z,8.57
2023-05-03T17:13:01.909Z,7.15
2023-05-03T17:15:29.986Z,8.05
2023-05-03T17:17:57.140Z,8.20
2023-05-03T17:20:24.796Z,7.88
2023-05-03T17:22:52.143Z,9.43
2023-05-03T17:25:20.005Z,9.23
2023-05-03T17:27:47.387Z,10.20
2023-05-03T17:30:15.289Z,8.73
2023-05-03T17:32:42.405Z,9.10
2023-05-03T17:35:11.396Z,9.70
2023-05-03T17:37:39.679Z,9.98
2023-05-03T17:40:07.932Z,8.88
2023-05-03T17:42:35.806Z,9.68
2023-05-03T17:45:04.416Z,8.65
2023-05-03T17:47:31.935Z,8.82
2023-05-03T17:49:59.454Z,8.95
2023-05-03T17:52:26.783Z,9.10
2023-05-03T17:54:54.814Z,10.40
2023-05-03T17:57:22.115Z,10.88
2023-05-03T17:59:49.583Z,10.55
2023-05-03T18:02:17.814Z,10.57
2023-05-03T18:04:45.452Z,11.80
2023-05-03T18:07:12.642Z,11.40
2023-05-03T18:09:40.553Z,14.20
2023-05-03T18:12:07.684Z,14.15
2023-05-03T18:14:36.674Z,13.95
2023-05-03T18:17:03.787Z,12.95
2023-05-03T18:19:31.348Z,12.40
2023-05-03T18:21:58.631Z,11.80
2023-05-03T18:24:26.474Z,12.20
2023-05-03T18:26:53.646Z,13.20
2023-05-03T18:29:21.074Z,10.50
2023-05-03T18:31:48.257Z,10.68
2023-05-03T18:34:16.545Z,11.95
2023-05-03T18:36:43.686Z,10.80
2023-05-03T18:39:11.236Z,13.15
2023-05-03T18:41:38.356Z,11.90
2023-05-03T18:44:07.713Z,11.32
2023-05-03T18:46:37.250Z,9.77
2023-05-03T18:49:04.930Z,10.50
2023-05-03T18:51:32.519Z,12.25
2023-05-03T18:53:59.975Z,10.57
2023-05-03T18:56:30.461Z,12.00
2023-05-03T18:58:58.199Z,10.70
2023-05-03T19:01:26.630Z,9.35
2023-05-03T19:03:54.993Z,10.40
2023-05-03T19:06:22.780Z,11.80
2023-05-03T19:08:50.223Z,11.30
2023-05-03T19:11:17.500Z,11.15
2023-05-03T19:13:46.137Z,11.77
2023-05-03T19:16:15.499Z,11.90
2023-05-03T19:18:44.371Z,12.50
2023-05-03T19:21:19.162Z,15.30
2023-05-03T19:23:46.630Z,13.25
2023-05-03T19:26:13.767Z,12.57
2023-05-03T19:28:41.171Z,12.88
2023-05-03T19:31:08.313Z,12.70
2023-05-03T19:33:37.109Z,11.82
2023-05-03T19:36:08.286Z,13.15
2023-05-03T19:38:36.420Z,12.27
2023-05-03T19:41:07.850Z,13.38
2023-05-03T19:43:35.609Z,12.60
2023-05-03T19:46:07.857Z,13.02
2023-05-03T19:48:35.612Z,14.02
2023-05-03T19:51:05.120Z,13.38
2023-05-03T19:53:33.699Z,14.00
2023-05-03T19:56:07.173Z,12.73
2023-05-03T19:58:34.750Z,13.45
2023-05-03T20:01:03.578Z,12.70
2023-05-03T20:03:31.364Z,15.57
2023-05-03T20:05:59.339Z,15.30
2023-05-03T20:08:27.088Z,12.43
2023-05-03T20:10:55.677Z,12.77
2023-05-03T20:13:25.766Z,12.15
2023-05-03T20:15:53.600Z,13.02
2023-05-03T20:18:21.132Z,14.15
2023-05-03T20:20:48.376Z,13.77
2023-05-03T20:23:16.814Z,12.43
2023-05-03T20:25:44.039Z,13.25
2023-05-03T20:28:11.440Z,11.32
2023-05-03T20:30:38.580Z,12.90
2023-05-03T20:33:06.043Z,12.25
2023-05-03T20:35:33.290Z,13.60
2023-05-03T20:38:00.730Z,11.77
2023-05-03T20:40:27.821Z,11.82
2023-05-03T20:42:55.200Z,12.30
2023-05-03T20:45:22.534Z,12.15
2023-05-03T20:47:50.232Z,11.10
2023-05-03T20:50:17.396Z,12.55
2023-05-03T20:52:44.885Z,14.05
2023-05-03T20:55:12.086Z,12.25
2023-05-03T20:57:42.710Z,13.05
2023-05-03T21:00:15.864Z,11.93
2023-05-03T21:02:44.041Z,12.90
2023-05-03T21:05:11.570Z,14.75
2023-05-03T21:07:39.195Z,14.05
2023-05-03T21:10:11.106Z,12.25
2023-05-03T21:12:38.458Z,12.20
2023-05-03T21:15:06.887Z,14.75
2023-05-03T21:17:34.355Z,11.02
2023-05-03T21:20:01.769Z,13.18
2023-05-03T21:22:30.300Z,12.88
2023-05-03T21:24:57.327Z,13.60
2023-05-03T21:27:24.856Z,12.50
2023-05-03T21:29:52.043Z,14.18
2023-05-03T21:32:19.511Z,11.68
2023-05-03T21:34:46.792Z,16.13
2023-05-03T21:37:14.290Z,13.93
2023-05-03T21:39:45.272Z,12.40
2023-05-03T21:42:18.214Z,15.93
2023-05-03T21:44:48.473Z,15.57
2023-05-03T21:47:15.842Z,15.30
2023-05-03T21:49:43.617Z,15.98
2023-05-03T21:52:11.021Z,14.90
2023-05-03T21:54:38.100Z,16.02
2023-05-03T21:57:05.660Z,14.57
2023-05-03T21:59:32.822Z,13.80
2023-05-03T22:02:00.929Z,13.23
2023-05-03T22:04:28.438Z,13.68
2023-05-03T22:06:56.491Z,14.20
2023-05-03T22:09:24.704Z,13.77
2023-05-03T22:11:52.528Z,14.05
2023-05-03T22:14:19.658Z,15.88
2023-05-03T22:16:47.210Z,14.35
2023-05-03T22:19:14.302Z,13.15
2023-05-03T22:21:42.362Z,14.82
2023-05-03T22:24:09.420Z,13.82
2023-05-03T22:26:36.952Z,12.70
2023-05-03T22:29:06.674Z,13.00
2023-05-03T22:31:35.374Z,12.57
2023-05-03T22:34:03.614Z,11.77
2023-05-03T22:36:31.016Z,11.80
2023-05-03T22:39:04.976Z,11.27
2023-05-03T22:41:33.243Z,11.77
2023-05-03T22:44:00.582Z,11.27
2023-05-03T22:46:29.159Z,10.68
2023-05-03T22:48:56.527Z,10.82
2023-05-03T22:51:24.870Z,11.23
2023-05-03T22:53:52.037Z,12.50
2023-05-03T22:56:19.389Z,11.52
2023-05-03T22:58:47.537Z,9.85
2023-05-03T23:01:15.576Z,10.57
2023-05-03T23:03:43.377Z,10.23
2023-05-03T23:06:10.867Z,11.00
2023-05-03T23:08:38.622Z,11.07
2023-05-03T23:11:06.054Z,10.68
2023-05-03T23:13:33.234Z,11.50
2023-05-03T23:16:02.380Z,10.23
2023-05-03T23:18:29.458Z,11.65
2023-05-03T23:20:56.898Z,10.52
2023-05-03T23:23:24.922Z,11.98
2023-05-03T23:25:52.629Z,10.85
2023-05-03T23:28:20.210Z,10.52
2023-05-03T23:30:48.197Z,11.02
2023-05-03T23:33:15.725Z,11.55
2023-05-03T23:35:43.597Z,14.45
2023-05-03T23:38:10.828Z,12.45
2023-05-03T23:40:38.326Z,10.95
2023-05-03T23:43:05.562Z,15.55
2023-05-03T23:45:33.019Z,11.90
2023-05-03T23:48:00.301Z,11.93
2023-05-03T23:50:27.802Z,10.63
2023-05-03T23:52:54.916Z,10.80
2023-05-03T23:55:22.251Z,10.70
2023-05-03T23:57:49.299Z,10.43
